sensor_id;sensor_type;location;lat;lon;timestamp;P1;durP1;ratioP1;P2;durP2;ratioP2
81477;SDS011;70892;52.526;5.494;2023-06-24T00:00:34;21.33;;;10.52;;
81477;SDS011;70892;52.526;5.494;2023-06-24T00:03:01;17.48;;;9.73;;
81477;SDS011;70892;52.526;5.494;2023-06-24T00:05:27;18.73;;;11.18;;
81477;SDS011;70892;52.526;5.494;2023-06-24T00:07:53;23.33;;;11.38;;
81477;SDS011;70892;52.526;5.494;2023-06-24T00:10:22;22.27;;;11.38;;
81477;SDS011;70892;52.526;5.494;2023-06-24T00:12:47;21.83;;;10.85;;
81477;SDS011;70892;52.526;5.494;2023-06-24T00:15:13;18.35;;;10.75;;
81477;SDS011;70892;52.526;5.494;2023-06-24T00:17:38;18.98;;;11.45;;
81477;SDS011;70892;52.526;5.494;2023-06-24T00:20:04;19.45;;;11.23;;
81477;SDS011;70892;52.526;5.494;2023-06-24T00:22:32;19.50;;;10.73;;
81477;SDS011;70892;52.526;5.494;2023-06-24T00:24:57;21.23;;;10.80;;
81477;SDS011;70892;52.526;5.494;2023-06-24T00:27:23;18.92;;;10.82;;
81477;SDS011;70892;52.526;5.494;2023-06-24T00:29:49;19.65;;;10.60;;
81477;SDS011;70892;52.526;5.494;2023-06-24T00:32:14;19.33;;;10.63;;
81477;SDS011;70892;52.526;5.494;2023-06-24T00:34:39;23.50;;;11.83;;
81477;SDS011;70892;52.526;5.494;2023-06-24T00:37:09;19.02;;;10.80;;
81477;SDS011;70892;52.526;5.494;2023-06-24T00:39:34;19.85;;;10.85;;
81477;SDS011;70892;52.526;5.494;2023-06-24T00:42:00;22.50;;;12.68;;
81477;SDS011;70892;52.526;5.494;2023-06-24T00:44:26;19.83;;;10.32;;
81477;SDS011;70892;52.526;5.494;2023-06-24T00:46:53;21.90;;;11.48;;
81477;SDS011;70892;52.526;5.494;2023-06-24T00:49:19;22.75;;;12.23;;
81477;SDS011;70892;52.526;5.494;2023-06-24T00:51:44;26.02;;;11.85;;
81477;SDS011;70892;52.526;5.494;2023-06-24T00:54:12;23.13;;;12.73;;
81477;SDS011;70892;52.526;5.494;2023-06-24T00:56:38;23.75;;;11.77;;
81477;SDS011;70892;52.526;5.494;2023-06-24T00:59:03;20.55;;;11.27;;
81477;SDS011;70892;52.526;5.494;2023-06-24T01:01:32;20.63;;;11.45;;
81477;SDS011;70892;52.526;5.494;2023-06-24T01:04:00;22.40;;;10.85;;
81477;SDS011;70892;52.526;5.494;2023-06-24T01:06:30;22.33;;;12.18;;
81477;SDS011;70892;52.526;5.494;2023-06-24T01:08:56;20.98;;;11.48;;
81477;SDS011;70892;52.526;5.494;2023-06-24T01:11:23;20.27;;;12.25;;
81477;SDS011;70892;52.526;5.494;2023-06-24T01:13:49;21.00;;;10.73;;
81477;SDS011;70892;52.526;5.494;2023-06-24T01:16:18;19.27;;;11.20;;
81477;SDS011;70892;52.526;5.494;2023-06-24T01:19:00;17.35;;;11.82;;
81477;SDS011;70892;52.526;5.494;2023-06-24T01:27:29;18.27;;;10.05;;
81477;SDS011;70892;52.526;5.494;2023-06-24T01:32:50;20.63;;;10.88;;
81477;SDS011;70892;52.526;5.494;2023-06-24T01:35:20;17.38;;;9.95;;
81477;SDS011;70892;52.526;5.494;2023-06-24T01:37:49;18.02;;;9.23;;
81477;SDS011;70892;52.526;5.494;2023-06-24T01:43:05;17.50;;;9.30;;
81477;SDS011;70892;52.526;5.494;2023-06-24T01:45:34;17.45;;;9.82;;
81477;SDS011;70892;52.526;5.494;2023-06-24T01:48:12;14.95;;;10.30;;
81477;SDS011;70892;52.526;5.494;2023-06-24T01:50:44;15.02;;;8.80;;
81477;SDS011;70892;52.526;5.494;2023-06-24T01:56:39;16.90;;;9.52;;
81477;SDS011;70892;52.526;5.494;2023-06-24T01:59:08;16.15;;;9.85;;
81477;SDS011;70892;52.526;5.494;2023-06-24T02:01:35;16.33;;;9.48;;
81477;SDS011;70892;52.526;5.494;2023-06-24T02:04:03;16.45;;;9.30;;
81477;SDS011;70892;52.526;5.494;2023-06-24T02:06:33;17.15;;;9.48;;
81477;SDS011;70892;52.526;5.494;2023-06-24T02:09:00;14.68;;;9.30;;
81477;SDS011;70892;52.526;5.494;2023-06-24T02:11:28;18.65;;;9.38;;
81477;SDS011;70892;52.526;5.494;2023-06-24T02:13:55;18.40;;;9.50;;
81477;SDS011;70892;52.526;5.494;2023-06-24T02:16:22;17.02;;;9.57;;
81477;SDS011;70892;52.526;5.494;2023-06-24T02:18:49;19.83;;;10.63;;
81477;SDS011;70892;52.526;5.494;2023-06-24T02:21:16;17.55;;;10.65;;
81477;SDS011;70892;52.526;5.494;2023-06-24T02:23:43;19.13;;;10.32;;
81477;SDS011;70892;52.526;5.494;2023-06-24T02:26:09;17.27;;;10.18;;
81477;SDS011;70892;52.526;5.494;2023-06-24T02:28:36;15.40;;;9.32;;
81477;SDS011;70892;52.526;5.494;2023-06-24T02:31:03;15.68;;;9.50;;
81477;SDS011;70892;52.526;5.494;2023-06-24T02:33:30;19.52;;;9.77;;
81477;SDS011;70892;52.526;5.494;2023-06-24T02:35:56;19.40;;;10.65;;
81477;SDS011;70892;52.526;5.494;2023-06-24T02:38:22;19.33;;;10.77;;
81477;SDS011;70892;52.526;5.494;2023-06-24T02:40:47;20.90;;;11.02;;
81477;SDS011;70892;52.526;5.494;2023-06-24T02:43:14;22.60;;;12.07;;
81477;SDS011;70892;52.526;5.494;2023-06-24T02:45:39;22.60;;;11.05;;
81477;SDS011;70892;52.526;5.494;2023-06-24T02:48:06;20.55;;;12.27;;
81477;SDS011;70892;52.526;5.494;2023-06-24T02:50:34;21.75;;;11.35;;
81477;SDS011;70892;52.526;5.494;2023-06-24T02:53:02;26.95;;;13.23;;
81477;SDS011;70892;52.526;5.494;2023-06-24T02:55:28;26.88;;;13.13;;
81477;SDS011;70892;52.526;5.494;2023-06-24T02:57:54;28.95;;;13.48;;
81477;SDS011;70892;52.526;5.494;2023-06-24T03:00:21;28.38;;;14.45;;
81477;SDS011;70892;52.526;5.494;2023-06-24T03:02:47;23.25;;;13.82;;
81477;SDS011;70892;52.526;5.494;2023-06-24T03:05:14;27.45;;;13.88;;
81477;SDS011;70892;52.526;5.494;2023-06-24T03:07:41;22.55;;;12.82;;
81477;SDS011;70892;52.526;5.494;2023-06-24T03:10:07;20.92;;;12.07;;
81477;SDS011;70892;52.526;5.494;2023-06-24T03:12:33;25.73;;;14.15;;
81477;SDS011;70892;52.526;5.494;2023-06-24T03:14:59;24.67;;;13.50;;
81477;SDS011;70892;52.526;5.494;2023-06-24T03:17:25;22.60;;;12.27;;
81477;SDS011;70892;52.526;5.494;2023-06-24T03:19:51;22.10;;;11.80;;
81477;SDS011;70892;52.526;5.494;2023-06-24T03:22:16;23.98;;;12.90;;
81477;SDS011;70892;52.526;5.494;2023-06-24T03:24:42;18.33;;;10.77;;
81477;SDS011;70892;52.526;5.494;2023-06-24T03:27:08;21.90;;;12.13;;
81477;SDS011;70892;52.526;5.494;2023-06-24T03:29:33;21.48;;;11.82;;
81477;SDS011;70892;52.526;5.494;2023-06-24T03:31:58;25.50;;;12.73;;
81477;SDS011;70892;52.526;5.494;2023-06-24T03:34:24;19.90;;;11.65;;
81477;SDS011;70892;52.526;5.494;2023-06-24T03:36:51;19.67;;;12.55;;
81477;SDS011;70892;52.526;5.494;2023-06-24T03:39:19;20.45;;;12.60;;
81477;SDS011;70892;52.526;5.494;2023-06-24T03:41:45;22.95;;;12.52;;
81477;SDS011;70892;52.526;5.494;2023-06-24T03:44:10;20.50;;;11.50;;
81477;SDS011;70892;52.526;5.494;2023-06-24T03:46:35;19.07;;;10.77;;
81477;SDS011;70892;52.526;5.494;2023-06-24T03:49:01;19.50;;;11.35;;
81477;SDS011;70892;52.526;5.494;2023-06-24T03:51:26;18.88;;;11.00;;
81477;SDS011;70892;52.526;5.494;2023-06-24T03:53:51;19.58;;;11.18;;
81477;SDS011;70892;52.526;5.494;2023-06-24T03:56:17;16.37;;;10.43;;
81477;SDS011;70892;52.526;5.494;2023-06-24T03:58:42;21.48;;;10.88;;
81477;SDS011;70892;52.526;5.494;2023-06-24T04:01:08;17.05;;;10.57;;
81477;SDS011;70892;52.526;5.494;2023-06-24T04:03:34;16.63;;;9.93;;
81477;SDS011;70892;52.526;5.494;2023-06-24T04:06:00;17.67;;;10.57;;
81477;SDS011;70892;52.526;5.494;2023-06-24T04:08:26;17.75;;;10.50;;
81477;SDS011;70892;52.526;5.494;2023-06-24T04:10:56;17.10;;;9.95;;
81477;SDS011;70892;52.526;5.494;2023-06-24T04:13:28;16.98;;;10.23;;
81477;SDS011;70892;52.526;5.494;2023-06-24T04:15:54;15.77;;;8.80;;
81477;SDS011;70892;52.526;5.494;2023-06-24T04:18:20;13.68;;;7.53;;
81477;SDS011;70892;52.526;5.494;2023-06-24T04:20:45;16.13;;;8.68;;
81477;SDS011;70892;52.526;5.494;2023-06-24T04:23:11;12.43;;;7.55;;
81477;SDS011;70892;52.526;5.494;2023-06-24T04:25:39;11.50;;;6.53;;
81477;SDS011;70892;52.526;5.494;2023-06-24T04:28:05;11.15;;;6.28;;
81477;SDS011;70892;52.526;5.494;2023-06-24T04:30:31;8.75;;;5.63;;
81477;SDS011;70892;52.526;5.494;2023-06-24T04:32:57;10.05;;;5.93;;
81477;SDS011;70892;52.526;5.494;2023-06-24T04:35:22;9.27;;;6.15;;
81477;SDS011;70892;52.526;5.494;2023-06-24T04:37:48;9.30;;;5.47;;
81477;SDS011;70892;52.526;5.494;2023-06-24T04:40:15;10.88;;;5.80;;
81477;SDS011;70892;52.526;5.494;2023-06-24T04:42:41;9.93;;;5.07;;
81477;SDS011;70892;52.526;5.494;2023-06-24T04:45:07;10.70;;;5.13;;
81477;SDS011;70892;52.526;5.494;2023-06-24T04:47:32;8.93;;;5.50;;
81477;SDS011;70892;52.526;5.494;2023-06-24T04:49:58;8.10;;;5.00;;
81477;SDS011;70892;52.526;5.494;2023-06-24T04:52:23;8.60;;;5.33;;
81477;SDS011;70892;52.526;5.494;2023-06-24T04:54:49;10.40;;;4.90;;
81477;SDS011;70892;52.526;5.494;2023-06-24T04:57:25;8.20;;;5.07;;
81477;SDS011;70892;52.526;5.494;2023-06-24T04:59:52;8.30;;;4.60;;
81477;SDS011;70892;52.526;5.494;2023-06-24T05:02:17;8.30;;;4.97;;
81477;SDS011;70892;52.526;5.494;2023-06-24T05:04:43;7.70;;;3.83;;
81477;SDS011;70892;52.526;5.494;2023-06-24T05:07:08;6.80;;;4.28;;
81477;SDS011;70892;52.526;5.494;2023-06-24T05:09:36;6.93;;;3.85;;
81477;SDS011;70892;52.526;5.494;2023-06-24T05:12:03;6.85;;;3.85;;
81477;SDS011;70892;52.526;5.494;2023-06-24T05:14:33;6.80;;;3.80;;
81477;SDS011;70892;52.526;5.494;2023-06-24T05:16:59;7.72;;;3.58;;
81477;SDS011;70892;52.526;5.494;2023-06-24T05:19:25;7.40;;;3.65;;
81477;SDS011;70892;52.526;5.494;2023-06-24T05:21:51;6.70;;;3.85;;
81477;SDS011;70892;52.526;5.494;2023-06-24T05:24:16;6.78;;;3.10;;
81477;SDS011;70892;52.526;5.494;2023-06-24T05:26:41;5.78;;;3.55;;
81477;SDS011;70892;52.526;5.494;2023-06-24T05:29:07;6.32;;;3.67;;
81477;SDS011;70892;52.526;5.494;2023-06-24T05:31:32;5.43;;;3.00;;
81477;SDS011;70892;52.526;5.494;2023-06-24T05:33:57;6.27;;;3.40;;
81477;SDS011;70892;52.526;5.494;2023-06-24T05:36:26;11.10;;;3.50;;
81477;SDS011;70892;52.526;5.494;2023-06-24T05:38:51;4.40;;;3.08;;
81477;SDS011;70892;52.526;5.494;2023-06-24T05:41:16;4.72;;;2.95;;
81477;SDS011;70892;52.526;5.494;2023-06-24T05:43:45;7.68;;;3.08;;
81477;SDS011;70892;52.526;5.494;2023-06-24T05:46:10;8.88;;;3.40;;
81477;SDS011;70892;52.526;5.494;2023-06-24T05:48:36;5.65;;;3.00;;
81477;SDS011;70892;52.526;5.494;2023-06-24T05:51:02;4.93;;;2.70;;
81477;SDS011;70892;52.526;5.494;2023-06-24T05:53:27;5.78;;;3.25;;
81477;SDS011;70892;52.526;5.494;2023-06-24T05:55:52;5.40;;;3.38;;
81477;SDS011;70892;52.526;5.494;2023-06-24T05:58:18;5.23;;;3.00;;
81477;SDS011;70892;52.526;5.494;2023-06-24T06:00:43;5.82;;;3.03;;
81477;SDS011;70892;52.526;5.494;2023-06-24T06:03:09;5.18;;;3.10;;
81477;SDS011;70892;52.526;5.494;2023-06-24T06:05:34;5.97;;;3.60;;
81477;SDS011;70892;52.526;5.494;2023-06-24T06:08:00;5.88;;;3.75;;
81477;SDS011;70892;52.526;5.494;2023-06-24T06:10:25;7.18;;;3.40;;
81477;SDS011;70892;52.526;5.494;2023-06-24T06:12:50;6.55;;;3.30;;
81477;SDS011;70892;52.526;5.494;2023-06-24T06:15:16;6.47;;;3.35;;
81477;SDS011;70892;52.526;5.494;2023-06-24T06:17:41;5.07;;;2.90;;
81477;SDS011;70892;52.526;5.494;2023-06-24T06:20:07;4.13;;;3.10;;
81477;SDS011;70892;52.526;5.494;2023-06-24T06:22:32;6.88;;;3.88;;
81477;SDS011;70892;52.526;5.494;2023-06-24T06:25:02;5.20;;;3.25;;
81477;SDS011;70892;52.526;5.494;2023-06-24T06:27:31;6.50;;;3.40;;
81477;SDS011;70892;52.526;5.494;2023-06-24T06:29:56;8.82;;;3.80;;
81477;SDS011;70892;52.526;5.494;2023-06-24T06:32:22;6.90;;;3.78;;
81477;SDS011;70892;52.526;5.494;2023-06-24T06:34:47;7.82;;;3.55;;
81477;SDS011;70892;52.526;5.494;2023-06-24T06:37:13;6.07;;;3.13;;
81477;SDS011;70892;52.526;5.494;2023-06-24T06:39:38;5.47;;;3.50;;
81477;SDS011;70892;52.526;5.494;2023-06-24T06:42:03;7.90;;;3.47;;
81477;SDS011;70892;52.526;5.494;2023-06-24T06:44:29;5.28;;;3.65;;
81477;SDS011;70892;52.526;5.494;2023-06-24T06:46:54;7.45;;;3.40;;
81477;SDS011;70892;52.526;5.494;2023-06-24T06:49:20;6.03;;;3.67;;
81477;SDS011;70892;52.526;5.494;2023-06-24T06:51:45;5.35;;;4.05;;
81477;SDS011;70892;52.526;5.494;2023-06-24T06:54:10;4.37;;;3.17;;
81477;SDS011;70892;52.526;5.494;2023-06-24T06:56:36;7.65;;;3.47;;
81477;SDS011;70892;52.526;5.494;2023-06-24T06:59:01;7.25;;;3.47;;
81477;SDS011;70892;52.526;5.494;2023-06-24T07:01:27;5.85;;;3.47;;
81477;SDS011;70892;52.526;5.494;2023-06-24T07:03:52;5.40;;;3.38;;
81477;SDS011;70892;52.526;5.494;2023-06-24T07:06:18;5.10;;;3.75;;
81477;SDS011;70892;52.526;5.494;2023-06-24T07:08:44;6.03;;;3.60;;
81477;SDS011;70892;52.526;5.494;2023-06-24T07:11:09;4.90;;;3.50;;
81477;SDS011;70892;52.526;5.494;2023-06-24T07:13:35;8.07;;;3.63;;
81477;SDS011;70892;52.526;5.494;2023-06-24T07:16:00;6.57;;;3.70;;
81477;SDS011;70892;52.526;5.494;2023-06-24T07:18:25;7.60;;;3.95;;
81477;SDS011;70892;52.526;5.494;2023-06-24T07:20:55;4.95;;;3.65;;
81477;SDS011;70892;52.526;5.494;2023-06-24T07:23:20;5.93;;;4.05;;
81477;SDS011;70892;52.526;5.494;2023-06-24T07:25:46;5.82;;;3.92;;
81477;SDS011;70892;52.526;5.494;2023-06-24T07:28:11;6.53;;;3.50;;
81477;SDS011;70892;52.526;5.494;2023-06-24T07:30:36;5.13;;;3.53;;
81477;SDS011;70892;52.526;5.494;2023-06-24T07:33:02;4.93;;;3.60;;
81477;SDS011;70892;52.526;5.494;2023-06-24T07:35:30;6.32;;;3.47;;
81477;SDS011;70892;52.526;5.494;2023-06-24T07:37:58;6.10;;;3.70;;
81477;SDS011;70892;52.526;5.494;2023-06-24T07:40:24;6.60;;;3.80;;
81477;SDS011;70892;52.526;5.494;2023-06-24T07:42:50;5.68;;;4.13;;
81477;SDS011;70892;52.526;5.494;2023-06-24T07:45:15;6.75;;;4.10;;
81477;SDS011;70892;52.526;5.494;2023-06-24T07:47:40;6.90;;;4.63;;
81477;SDS011;70892;52.526;5.494;2023-06-24T07:50:06;6.50;;;4.55;;
81477;SDS011;70892;52.526;5.494;2023-06-24T07:52:31;4.85;;;4.32;;
81477;SDS011;70892;52.526;5.494;2023-06-24T07:54:57;7.00;;;4.38;;
81477;SDS011;70892;52.526;5.494;2023-06-24T07:57:22;6.72;;;4.75;;
81477;SDS011;70892;52.526;5.494;2023-06-24T07:59:48;8.30;;;5.90;;
81477;SDS011;70892;52.526;5.494;2023-06-24T08:02:13;8.45;;;5.45;;
81477;SDS011;70892;52.526;5.494;2023-06-24T08:04:38;9.32;;;6.50;;
81477;SDS011;70892;52.526;5.494;2023-06-24T08:07:04;8.95;;;5.82;;
81477;SDS011;70892;52.526;5.494;2023-06-24T08:09:30;9.02;;;5.97;;
81477;SDS011;70892;52.526;5.494;2023-06-24T08:11:55;8.85;;;5.95;;
81477;SDS011;70892;52.526;5.494;2023-06-24T08:14:20;8.88;;;6.68;;
81477;SDS011;70892;52.526;5.494;2023-06-24T08:16:46;8.85;;;6.20;;
81477;SDS011;70892;52.526;5.494;2023-06-24T08:19:11;9.32;;;6.30;;
81477;SDS011;70892;52.526;5.494;2023-06-24T08:21:37;9.40;;;5.80;;
81477;SDS011;70892;52.526;5.494;2023-06-24T08:24:03;7.70;;;5.47;;
81477;SDS011;70892;52.526;5.494;2023-06-24T08:26:29;10.25;;;5.68;;
81477;SDS011;70892;52.526;5.494;2023-06-24T08:28:54;7.93;;;5.35;;
81477;SDS011;70892;52.526;5.494;2023-06-24T08:31:21;7.32;;;4.78;;
81477;SDS011;70892;52.526;5.494;2023-06-24T08:33:51;7.63;;;5.00;;
81477;SDS011;70892;52.526;5.494;2023-06-24T08:36:22;8.20;;;5.18;;
81477;SDS011;70892;52.526;5.494;2023-06-24T08:38:51;8.05;;;4.68;;
81477;SDS011;70892;52.526;5.494;2023-06-24T08:41:16;7.55;;;5.13;;
81477;SDS011;70892;52.526;5.494;2023-06-24T08:43:41;6.45;;;4.65;;
81477;SDS011;70892;52.526;5.494;2023-06-24T08:46:08;6.50;;;4.20;;
81477;SDS011;70892;52.526;5.494;2023-06-24T08:48:33;6.88;;;4.10;;
81477;SDS011;70892;52.526;5.494;2023-06-24T08:51:05;7.75;;;4.45;;
81477;SDS011;70892;52.526;5.494;2023-06-24T08:53:33;7.07;;;4.65;;
81477;SDS011;70892;52.526;5.494;2023-06-24T08:55:59;7.30;;;4.63;;
81477;SDS011;70892;52.526;5.494;2023-06-24T08:58:25;7.60;;;4.55;;
81477;SDS011;70892;52.526;5.494;2023-06-24T09:00:51;5.50;;;4.28;;
81477;SDS011;70892;52.526;5.494;2023-06-24T09:03:16;7.50;;;4.82;;
81477;SDS011;70892;52.526;5.494;2023-06-24T09:05:41;5.82;;;4.53;;
81477;SDS011;70892;52.526;5.494;2023-06-24T09:08:09;6.90;;;4.85;;
81477;SDS011;70892;52.526;5.494;2023-06-24T09:10:35;7.10;;;4.75;;
81477;SDS011;70892;52.526;5.494;2023-06-24T09:13:05;8.20;;;5.25;;
81477;SDS011;70892;52.526;5.494;2023-06-24T09:15:32;7.38;;;5.43;;
81477;SDS011;70892;52.526;5.494;2023-06-24T09:18:02;8.35;;;5.35;;
81477;SDS011;70892;52.526;5.494;2023-06-24T09:20:28;8.15;;;5.82;;
81477;SDS011;70892;52.526;5.494;2023-06-24T09:23:00;9.15;;;5.90;;
81477;SDS011;70892;52.526;5.494;2023-06-24T09:25:27;7.60;;;5.32;;
81477;SDS011;70892;52.526;5.494;2023-06-24T09:27:53;9.55;;;5.82;;
81477;SDS011;70892;52.526;5.494;2023-06-24T09:32:50;8.52;;;6.10;;
81477;SDS011;70892;52.526;5.494;2023-06-24T09:35:18;10.02;;;5.88;;
81477;SDS011;70892;52.526;5.494;2023-06-24T09:38:03;9.98;;;6.07;;
81477;SDS011;70892;52.526;5.494;2023-06-24T09:40:28;11.07;;;5.90;;
81477;SDS011;70892;52.526;5.494;2023-06-24T09:42:57;8.55;;;6.07;;
81477;SDS011;70892;52.526;5.494;2023-06-24T09:45:28;7.85;;;5.75;;
81477;SDS011;70892;52.526;5.494;2023-06-24T09:47:55;8.48;;;6.13;;
81477;SDS011;70892;52.526;5.494;2023-06-24T09:50:33;10.68;;;6.40;;
81477;SDS011;70892;52.526;5.494;2023-06-24T09:52:58;8.68;;;6.07;;
81477;SDS011;70892;52.526;5.494;2023-06-24T09:55:25;8.02;;;6.15;;
81477;SDS011;70892;52.526;5.494;2023-06-24T09:57:51;9.73;;;6.38;;
81477;SDS011;70892;52.526;5.494;2023-06-24T10:00:18;8.57;;;6.10;;
81477;SDS011;70892;52.526;5.494;2023-06-24T10:02:44;9.43;;;6.03;;
81477;SDS011;70892;52.526;5.494;2023-06-24T10:05:14;6.97;;;5.80;;
81477;SDS011;70892;52.526;5.494;2023-06-24T10:07:40;7.88;;;6.00;;
81477;SDS011;70892;52.526;5.494;2023-06-24T10:10:07;9.00;;;5.57;;
81477;SDS011;70892;52.526;5.494;2023-06-24T10:12:37;11.48;;;6.53;;
81477;SDS011;70892;52.526;5.494;2023-06-24T10:15:03;7.95;;;6.57;;
81477;SDS011;70892;52.526;5.494;2023-06-24T10:17:30;7.82;;;5.90;;
81477;SDS011;70892;52.526;5.494;2023-06-24T10:19:55;9.75;;;6.40;;
81477;SDS011;70892;52.526;5.494;2023-06-24T10:22:21;8.52;;;5.72;;
81477;SDS011;70892;52.526;5.494;2023-06-24T10:24:49;7.88;;;6.30;;
81477;SDS011;70892;52.526;5.494;2023-06-24T10:27:16;9.95;;;7.15;;
81477;SDS011;70892;52.526;5.494;2023-06-24T10:29:46;12.43;;;6.97;;
81477;SDS011;70892;52.526;5.494;2023-06-24T10:32:17;9.38;;;6.10;;
81477;SDS011;70892;52.526;5.494;2023-06-24T10:34:44;7.32;;;5.90;;
81477;SDS011;70892;52.526;5.494;2023-06-24T10:37:11;6.15;;;5.40;;
81477;SDS011;70892;52.526;5.494;2023-06-24T10:39:54;6.03;;;4.22;;
81477;SDS011;70892;52.526;5.494;2023-06-24T10:44:52;6.53;;;4.75;;
81477;SDS011;70892;52.526;5.494;2023-06-24T10:47:39;5.70;;;4.25;;
81477;SDS011;70892;52.526;5.494;2023-06-24T10:50:07;6.90;;;3.95;;
81477;SDS011;70892;52.526;5.494;2023-06-24T10:52:54;5.43;;;4.47;;
81477;SDS011;70892;52.526;5.494;2023-06-24T10:55:25;6.70;;;4.47;;
81477;SDS011;70892;52.526;5.494;2023-06-24T10:57:51;5.60;;;4.50;;
81477;SDS011;70892;52.526;5.494;2023-06-24T11:00:16;5.93;;;4.50;;
81477;SDS011;70892;52.526;5.494;2023-06-24T11:02:42;6.85;;;5.32;;
81477;SDS011;70892;52.526;5.494;2023-06-24T11:05:09;7.68;;;5.13;;
81477;SDS011;70892;52.526;5.494;2023-06-24T11:07:35;5.75;;;4.82;;
81477;SDS011;70892;52.526;5.494;2023-06-24T11:10:05;7.78;;;4.65;;
81477;SDS011;70892;52.526;5.494;2023-06-24T11:15:02;5.70;;;4.32;;
81477;SDS011;70892;52.526;5.494;2023-06-24T11:17:29;8.35;;;5.72;;
81477;SDS011;70892;52.526;5.494;2023-06-24T11:19:55;6.63;;;5.22;;
81477;SDS011;70892;52.526;5.494;2023-06-24T11:22:22;5.50;;;4.90;;
81477;SDS011;70892;52.526;5.494;2023-06-24T11:24:48;7.88;;;5.95;;
81477;SDS011;70892;52.526;5.494;2023-06-24T11:27:13;9.52;;;6.68;;
81477;SDS011;70892;52.526;5.494;2023-06-24T11:29:39;6.63;;;5.60;;
81477;SDS011;70892;52.526;5.494;2023-06-24T11:32:06;8.02;;;6.00;;
81477;SDS011;70892;52.526;5.494;2023-06-24T11:34:32;7.80;;;5.90;;
81477;SDS011;70892;52.526;5.494;2023-06-24T11:36:58;6.97;;;5.50;;
81477;SDS011;70892;52.526;5.494;2023-06-24T11:39:25;6.97;;;5.32;;
81477;SDS011;70892;52.526;5.494;2023-06-24T11:41:53;6.35;;;5.05;;
81477;SDS011;70892;52.526;5.494;2023-06-24T11:44:32;8.77;;;6.40;;
81477;SDS011;70892;52.526;5.494;2023-06-24T11:47:09;8.73;;;6.60;;
81477;SDS011;70892;52.526;5.494;2023-06-24T11:49:56;14.60;;;7.55;;
81477;SDS011;70892;52.526;5.494;2023-06-24T11:52:42;10.63;;;6.45;;
81477;SDS011;70892;52.526;5.494;2023-06-24T11:55:18;12.18;;;7.75;;
81477;SDS011;70892;52.526;5.494;2023-06-24T12:00:21;9.30;;;6.85;;
81477;SDS011;70892;52.526;5.494;2023-06-24T12:02:58;11.30;;;8.70;;
81477;SDS011;70892;52.526;5.494;2023-06-24T12:05:26;8.05;;;7.18;;
81477;SDS011;70892;52.526;5.494;2023-06-24T12:07:56;8.30;;;6.38;;
81477;SDS011;70892;52.526;5.494;2023-06-24T12:10:23;11.15;;;6.40;;
81477;SDS011;70892;52.526;5.494;2023-06-24T12:12:49;7.80;;;6.75;;
81477;SDS011;70892;52.526;5.494;2023-06-24T12:15:15;9.57;;;6.68;;
81477;SDS011;70892;52.526;5.494;2023-06-24T12:17:40;8.48;;;6.57;;
81477;SDS011;70892;52.526;5.494;2023-06-24T12:20:08;11.15;;;7.85;;
81477;SDS011;70892;52.526;5.494;2023-06-24T12:22:35;10.70;;;7.25;;
81477;SDS011;70892;52.526;5.494;2023-06-24T12:25:01;9.30;;;6.63;;
81477;SDS011;70892;52.526;5.494;2023-06-24T12:27:27;10.73;;;6.95;;
81477;SDS011;70892;52.526;5.494;2023-06-24T12:29:53;10.13;;;7.38;;
81477;SDS011;70892;52.526;5.494;2023-06-24T12:32:20;10.20;;;7.95;;
81477;SDS011;70892;52.526;5.494;2023-06-24T12:34:45;9.07;;;7.00;;
81477;SDS011;70892;52.526;5.494;2023-06-24T12:37:11;10.63;;;7.82;;
81477;SDS011;70892;52.526;5.494;2023-06-24T12:39:36;11.68;;;8.73;;
81477;SDS011;70892;52.526;5.494;2023-06-24T12:42:01;11.95;;;8.65;;
81477;SDS011;70892;52.526;5.494;2023-06-24T12:44:27;12.23;;;8.90;;
81477;SDS011;70892;52.526;5.494;2023-06-24T12:46:52;12.70;;;8.85;;
81477;SDS011;70892;52.526;5.494;2023-06-24T12:49:18;13.07;;;8.77;;
81477;SDS011;70892;52.526;5.494;2023-06-24T12:51:43;12.98;;;8.07;;
81477;SDS011;70892;52.526;5.494;2023-06-24T12:54:09;14.48;;;9.20;;
81477;SDS011;70892;52.526;5.494;2023-06-24T12:56:34;10.57;;;7.20;;
81477;SDS011;70892;52.526;5.494;2023-06-24T12:59:03;12.05;;;8.57;;
81477;SDS011;70892;52.526;5.494;2023-06-24T13:01:28;11.38;;;7.40;;
81477;SDS011;70892;52.526;5.494;2023-06-24T13:03:53;10.82;;;7.70;;
81477;SDS011;70892;52.526;5.494;2023-06-24T13:06:19;9.05;;;6.95;;
81477;SDS011;70892;52.526;5.494;2023-06-24T13:08:44;10.63;;;7.97;;
81477;SDS011;70892;52.526;5.494;2023-06-24T13:11:09;12.45;;;9.15;;
81477;SDS011;70892;52.526;5.494;2023-06-24T13:13:38;9.55;;;6.70;;
81477;SDS011;70892;52.526;5.494;2023-06-24T13:16:03;8.98;;;7.30;;
81477;SDS011;70892;52.526;5.494;2023-06-24T13:18:29;9.75;;;7.25;;
81477;SDS011;70892;52.526;5.494;2023-06-24T13:20:54;8.88;;;6.65;;
81477;SDS011;70892;52.526;5.494;2023-06-24T13:23:19;10.32;;;7.60;;
81477;SDS011;70892;52.526;5.494;2023-06-24T13:25:45;10.10;;;7.68;;
81477;SDS011;70892;52.526;5.494;2023-06-24T13:28:10;8.88;;;7.63;;
81477;SDS011;70892;52.526;5.494;2023-06-24T13:30:35;9.77;;;7.22;;
81477;SDS011;70892;52.526;5.494;2023-06-24T13:33:01;10.50;;;7.50;;
81477;SDS011;70892;52.526;5.494;2023-06-24T13:35:26;9.85;;;7.50;;
81477;SDS011;70892;52.526;5.494;2023-06-24T13:37:52;11.68;;;8.18;;
81477;SDS011;70892;52.526;5.494;2023-06-24T13:40:17;8.38;;;6.60;;
81477;SDS011;70892;52.526;5.494;2023-06-24T13:42:42;7.72;;;6.47;;
81477;SDS011;70892;52.526;5.494;2023-06-24T13:45:11;10.57;;;7.45;;
81477;SDS011;70892;52.526;5.494;2023-06-24T13:47:37;9.85;;;6.97;;
81477;SDS011;70892;52.526;5.494;2023-06-24T13:50:02;9.57;;;6.13;;
81477;SDS011;70892;52.526;5.494;2023-06-24T13:52:29;9.60;;;6.45;;
81477;SDS011;70892;52.526;5.494;2023-06-24T13:54:54;8.23;;;6.30;;
81477;SDS011;70892;52.526;5.494;2023-06-24T13:57:20;10.10;;;5.72;;
81477;SDS011;70892;52.526;5.494;2023-06-24T13:59:48;8.20;;;6.25;;
81477;SDS011;70892;52.526;5.494;2023-06-24T14:02:13;9.18;;;5.75;;
81477;SDS011;70892;52.526;5.494;2023-06-24T14:04:38;12.07;;;7.93;;
81477;SDS011;70892;52.526;5.494;2023-06-24T14:07:05;12.85;;;6.70;;
81477;SDS011;70892;52.526;5.494;2023-06-24T14:09:31;11.13;;;7.53;;
81477;SDS011;70892;52.526;5.494;2023-06-24T14:11:57;10.55;;;8.00;;
81477;SDS011;70892;52.526;5.494;2023-06-24T14:14:23;10.55;;;7.38;;
81477;SDS011;70892;52.526;5.494;2023-06-24T14:16:48;12.07;;;8.00;;
81477;SDS011;70892;52.526;5.494;2023-06-24T14:19:13;13.98;;;7.53;;
81477;SDS011;70892;52.526;5.494;2023-06-24T14:21:39;11.32;;;7.90;;
81477;SDS011;70892;52.526;5.494;2023-06-24T14:24:05;10.23;;;7.45;;
81477;SDS011;70892;52.526;5.494;2023-06-24T14:26:32;13.30;;;7.55;;
81477;SDS011;70892;52.526;5.494;2023-06-24T14:28:58;10.82;;;6.93;;
81477;SDS011;70892;52.526;5.494;2023-06-24T14:31:23;8.38;;;6.05;;
81477;SDS011;70892;52.526;5.494;2023-06-24T14:33:48;11.18;;;6.78;;
81477;SDS011;70892;52.526;5.494;2023-06-24T14:36:14;10.40;;;5.63;;
81477;SDS011;70892;52.526;5.494;2023-06-24T14:38:39;11.68;;;7.43;;
81477;SDS011;70892;52.526;5.494;2023-06-24T14:41:06;11.38;;;7.68;;
81477;SDS011;70892;52.526;5.494;2023-06-24T14:43:32;11.52;;;7.80;;
81477;SDS011;70892;52.526;5.494;2023-06-24T14:46:19;11.38;;;7.05;;
81477;SDS011;70892;52.526;5.494;2023-06-24T14:48:45;9.25;;;6.95;;
81477;SDS011;70892;52.526;5.494;2023-06-24T14:51:10;10.43;;;6.88;;
81477;SDS011;70892;52.526;5.494;2023-06-24T14:53:36;9.88;;;6.10;;
81477;SDS011;70892;52.526;5.494;2023-06-24T14:56:01;10.75;;;6.53;;
81477;SDS011;70892;52.526;5.494;2023-06-24T14:58:26;8.40;;;5.78;;
81477;SDS011;70892;52.526;5.494;2023-06-24T15:00:52;7.85;;;4.85;;